Time;durP1;ratioP1;P1;durP2;ratioP2;P2;SDS_P1;SDS_P2;PMS_P1;PMS_P2;Temp;Humidity;BMP_temperature;BMP_pressure;BME280_temperature;BME280_humidity;BME280_pressure;Samples;Min_cycle;Max_cycle;Signal;HPM_P1;HPM_P2
2023/03/01 00:01:41;;;;;;;111.00;41.90;;;;;;;-3.72;100.00;101699.16;107476;1278;58567;-81
2023/03/01 00:04:06;;;;;;;105.30;41.90;;;;;;;-3.73;100.00;101705.47;107446;1278;58298;-80
2023/03/01 00:06:32;;;;;;;107.90;41.30;;;;;;;-3.74;100.00;101708.65;107163;1279;58651;-80
2023/03/01 00:08:57;;;;;;;106.60;41.80;;;;;;;-3.70;100.00;101709.52;107494;1278;58255;-80
2023/03/01 00:11:29;;;;;;;103.40;41.90;;;;;;;-3.69;100.00;101708.73;107496;1278;58217;-80
2023/03/01 00:13:58;;;;;;;116.30;43.30;;;;;;;-3.69;100.00;101706.66;107418;1278;61642;-80
2023/03/01 00:16:30;;;;;;;114.00;41.50;;;;;;;-3.71;100.00;101703.13;107424;1278;60362;-80
2023/03/01 00:18:57;;;;;;;115.10;42.70;;;;;;;-3.71;100.00;101698.55;107349;1279;73724;-81
2023/03/01 00:21:23;;;;;;;114.00;43.70;;;;;;;-3.72;100.00;101692.73;107447;1278;72172;-80
2023/03/01 00:23:49;;;;;;;116.80;42.60;;;;;;;-3.76;100.00;101687.25;107425;1278;59088;-79
2023/03/01 00:26:16;;;;;;;116.50;42.30;;;;;;;-3.77;100.00;101683.28;107449;1278;59122;-80
2023/03/01 00:28:42;;;;;;;113.60;41.30;;;;;;;-3.79;100.00;101676.11;107484;1278;59020;-80
2023/03/01 00:31:14;;;;;;;115.40;43.50;;;;;;;-3.81;100.00;101674.58;107448;1278;59035;-80
2023/03/01 00:33:40;;;;;;;113.50;41.80;;;;;;;-3.83;100.00;101669.45;107297;1279;73043;-80
2023/03/01 00:36:07;;;;;;;113.50;43.20;;;;;;;-3.82;100.00;101666.45;107462;1278;59046;-79
2023/03/01 00:38:37;;;;;;;123.20;43.30;;;;;;;-3.82;100.00;101658.19;107439;1278;59008;-80
2023/03/01 00:41:05;;;;;;;115.50;43.10;;;;;;;-3.83;100.00;101657.52;107160;1279;60078;-80
2023/03/01 00:43:30;;;;;;;112.80;41.60;;;;;;;-3.84;100.00;101653.56;107155;1279;75406;-80
2023/03/01 00:46:01;;;;;;;127.10;44.40;;;;;;;-3.85;100.00;101649.61;107518;1278;59411;-80
2023/03/01 00:48:26;;;;;;;104.40;38.90;;;;;;;-3.86;100.00;101649.89;107390;1278;72581;-79
2023/03/01 00:50:52;;;;;;;119.60;41.50;;;;;;;-3.85;100.00;101645.23;107403;1279;58970;-80
2023/03/01 00:53:17;;;;;;;117.30;42.30;;;;;;;-3.84;100.00;101643.38;107431;1279;60082;-80
2023/03/01 00:55:42;;;;;;;110.80;42.90;;;;;;;-3.83;100.00;101636.44;107476;1278;59170;-80
2023/03/01 00:58:08;;;;;;;108.80;41.50;;;;;;;-3.79;100.00;101627.88;107170;1281;59170;-80
2023/03/01 01:00:34;;;;;;;107.90;39.30;;;;;;;-3.76;100.00;101627.41;107444;1278;58985;-80
2023/03/01 01:02:59;;;;;;;102.40;38.60;;;;;;;-3.76;100.00;101626.38;107461;1278;59069;-79
2023/03/01 01:05:24;;;;;;;97.20;37.00;;;;;;;-3.75;100.00;101627.35;107445;1278;59143;-80
2023/03/01 01:11:12;;;;;;;100.80;38.30;;;;;;;-3.66;100.00;101625.92;107406;1278;71310;-80
2023/03/01 01:13:39;;;;;;;95.20;37.70;;;;;;;-3.66;100.00;101620.88;107386;1278;59339;-79
2023/03/01 01:16:05;;;;;;;91.90;35.70;;;;;;;-3.67;100.00;101615.34;107441;1279;58993;-79
2023/03/01 01:18:30;;;;;;;99.40;37.30;;;;;;;-3.64;100.00;101615.25;107172;1279;59127;-80
2023/03/01 01:20:56;;;;;;;92.60;37.20;;;;;;;-3.61;100.00;101620.38;107830;1278;58926;-78
2023/03/01 01:23:21;;;;;;;90.50;35.60;;;;;;;-3.60;100.00;101621.06;107855;1279;58969;-76
2023/03/01 01:25:47;;;;;;;84.20;34.60;;;;;;;-3.62;100.00;101623.48;107716;1278;58925;-77
2023/03/01 01:28:12;;;;;;;82.50;34.40;;;;;;;-3.59;100.00;101617.39;107446;1278;75260;-80
2023/03/01 01:30:38;;;;;;;83.70;34.90;;;;;;;-3.56;100.00;101616.10;107454;1278;58978;-80
2023/03/01 01:33:03;;;;;;;83.90;33.20;;;;;;;-3.57;100.00;101610.55;107460;1278;59037;-80
2023/03/01 01:35:29;;;;;;;83.90;34.80;;;;;;;-3.58;100.00;101611.13;107169;1279;59483;-80
2023/03/01 01:37:54;;;;;;;77.70;32.10;;;;;;;-3.59;100.00;101605.86;107451;1278;59240;-81
2023/03/01 01:40:20;;;;;;;79.30;33.20;;;;;;;-3.61;100.00;101601.32;107428;1278;59028;-81
2023/03/01 01:42:45;;;;;;;75.60;31.50;;;;;;;-3.61;100.00;101599.49;107292;1279;59530;-80
2023/03/01 01:45:31;;;;;;;77.60;33.30;;;;;;;-3.59;100.00;101597.73;107423;1278;59352;-80
2023/03/01 01:48:26;;;;;;;76.20;32.40;;;;;;;-3.58;100.00;101596.45;107392;1278;60162;-80
2023/03/01 01:50:57;;;;;;;78.60;32.10;;;;;;;-3.56;100.00;101586.78;106554;1287;75604;-80
2023/03/01 01:53:25;;;;;;;70.90;30.50;;;;;;;-3.57;100.00;101585.45;106563;1286;74541;-80
2023/03/01 01:55:56;;;;;;;69.20;31.40;;;;;;;-3.58;100.00;101580.66;106569;1286;72104;-80
2023/03/01 01:58:26;;;;;;;86.30;33.10;;;;;;;-3.58;100.00;101581.71;106526;1287;62787;-80
2023/03/01 02:00:53;;;;;;;74.60;30.50;;;;;;;-3.57;100.00;101581.40;106567;1287;61009;-80
2023/03/01 02:03:24;;;;;;;68.80;31.00;;;;;;;-3.56;100.00;101584.13;106536;1287;59082;-80
2023/03/01 02:06:03;;;;;;;68.90;30.80;;;;;;;-3.55;100.00;101581.07;106551;1287;72551;-80
2023/03/01 02:08:31;;;;;;;68.90;28.50;;;;;;;-3.55;100.00;101574.77;106540;1286;73777;-78
2023/03/01 02:10:59;;;;;;;70.40;31.10;;;;;;;-3.55;100.00;101573.34;106533;1286;62621;-80
2023/03/01 02:13:26;;;;;;;65.90;29.50;;;;;;;-3.55;100.00;101574.02;106554;1286;61596;-80
2023/03/01 02:15:52;;;;;;;71.90;29.40;;;;;;;-3.53;100.00;101567.88;106557;1287;75438;-81
2023/03/01 02:18:20;;;;;;;60.20;28.00;;;;;;;-3.53;100.00;101560.69;106552;1286;59141;-80
2023/03/01 02:21:17;;;;;;;60.10;28.20;;;;;;;-3.55;100.00;101555.75;106522;1287;71381;-80
2023/03/01 02:23:43;;;;;;;62.40;28.10;;;;;;;-3.57;100.00;101557.33;106038;1292;63344;-80
2023/03/01 02:26:20;;;;;;;60.00;27.20;;;;;;;-3.57;100.00;101553.98;106097;1292;59095;-78
2023/03/01 02:28:46;;;;;;;59.20;26.80;;;;;;;-3.58;100.00;101555.20;106580;1286;74514;-80
2023/03/01 02:34:04;;;;;;;63.60;26.70;;;;;;;-3.65;100.00;101556.13;106670;1286;72498;-80
2023/03/01 02:36:38;;;;;;;57.50;26.60;;;;;;;-3.66;100.00;101549.73;106669;1286;61707;-81
2023/03/01 02:39:07;;;;;;;56.30;26.20;;;;;;;-3.70;100.00;101540.92;106254;1286;59356;-80
2023/03/01 02:41:39;;;;;;;61.20;26.50;;;;;;;-3.70;100.00;101542.23;106460;1286;73893;-80
2023/03/01 02:44:05;;;;;;;56.50;25.30;;;;;;;-3.72;100.00;101540.49;106676;1285;74171;-80
2023/03/01 02:46:31;;;;;;;59.10;26.20;;;;;;;-3.74;100.00;101533.95;106696;1285;59197;-81
2023/03/01 02:48:58;;;;;;;57.60;24.90;;;;;;;-3.76;100.00;101531.17;106498;1287;59496;-81
2023/03/01 02:51:32;;;;;;;49.30;23.10;;;;;;;-3.78;100.00;101525.05;106704;1286;59144;-80
2023/03/01 02:54:15;;;;;;;62.30;25.90;;;;;;;-3.79;100.00;101520.41;106684;1285;74516;-80
2023/03/01 02:56:42;;;;;;;50.00;23.40;;;;;;;-3.79;100.00;101517.59;106685;1286;74259;-80
2023/03/01 02:59:10;;;;;;;54.90;24.30;;;;;;;-3.81;100.00;101513.27;106738;1286;73379;-80
2023/03/01 03:01:38;;;;;;;52.10;23.50;;;;;;;-3.84;100.00;101510.70;107144;1279;61749;-80
2023/03/01 03:04:11;;;;;;;47.30;22.50;;;;;;;-3.86;100.00;101510.51;107153;1279;61179;-80
2023/03/01 03:06:37;;;;;;;49.20;23.80;;;;;;;-3.86;100.00;101507.18;107302;1281;75488;-80
2023/03/01 03:09:04;;;;;;;49.50;23.00;;;;;;;-3.88;100.00;101508.57;107102;1279;59086;-80
2023/03/01 03:11:32;;;;;;;50.60;23.80;;;;;;;-3.88;100.00;101507.56;107338;1280;73465;-81
2023/03/01 03:13:57;;;;;;;44.00;21.60;;;;;;;-3.91;100.00;101502.88;107360;1279;61949;-81
2023/03/01 03:16:23;;;;;;;50.70;23.20;;;;;;;-3.94;100.00;101502.64;107336;1279;59061;-80
2023/03/01 03:18:48;;;;;;;51.20;22.60;;;;;;;-3.96;100.00;101500.23;107323;1279;58926;-80
2023/03/01 03:21:16;;;;;;;48.80;22.50;;;;;;;-3.96;100.00;101502.30;107391;1278;59118;-80
2023/03/01 03:23:42;;;;;;;55.10;25.00;;;;;;;-3.97;100.00;101495.70;107441;1278;58990;-81
2023/03/01 03:26:07;;;;;;;49.60;23.50;;;;;;;-3.98;100.00;101496.08;107172;1279;59112;-80
2023/03/01 03:28:34;;;;;;;55.20;23.90;;;;;;;-4.00;100.00;101487.79;107514;1279;59120;-81
2023/03/01 03:31:03;;;;;;;54.10;24.20;;;;;;;-4.04;100.00;101479.80;106910;1279;74996;-81
2023/03/01 03:33:30;;;;;;;57.50;26.10;;;;;;;-4.08;100.00;101485.52;107242;1279;73461;-80
2023/03/01 03:35:56;;;;;;;52.90;25.50;;;;;;;-4.05;100.00;101491.40;107082;1279;60398;-80
2023/03/01 03:38:21;;;;;;;55.60;25.20;;;;;;;-4.04;100.00;101502.76;107441;1279;59126;-80
2023/03/01 03:41:07;;;;;;;54.40;24.90;;;;;;;-4.04;100.00;101509.19;107471;1278;59454;-80
2023/03/01 03:43:35;;;;;;;54.50;25.10;;;;;;;-4.01;100.00;101495.30;107458;1278;74363;-80
2023/03/01 03:46:05;;;;;;;50.90;24.10;;;;;;;-4.02;100.00;101484.45;107399;1278;73386;-81
2023/03/01 03:48:34;;;;;;;58.40;25.40;;;;;;;-4.01;100.00;101474.16;107364;1278;61905;-81
2023/03/01 03:51:00;;;;;;;50.70;23.60;;;;;;;-3.98;100.00;101460.41;107285;1279;59549;-81
2023/03/01 03:53:27;;;;;;;53.10;24.00;;;;;;;-4.02;100.00;101445.00;107446;1282;59072;-80
2023/03/01 03:55:53;;;;;;;61.60;25.60;;;;;;;-4.06;100.00;101439.60;107409;1279;58916;-81
2023/03/01 03:58:21;;;;;;;53.80;24.50;;;;;;;-4.11;100.00;101435.83;107388;1278;59708;-80
2023/03/01 04:00:50;;;;;;;51.00;24.50;;;;;;;-4.12;100.00;101439.25;107452;1278;61727;-80
2023/03/01 04:03:18;;;;;;;53.20;24.20;;;;;;;-4.10;100.00;101432.55;107252;1279;59989;-80
2023/03/01 04:05:44;;;;;;;52.60;23.40;;;;;;;-4.08;100.00;101434.16;107482;1279;75487;-80
2023/03/01 04:08:10;;;;;;;53.50;24.10;;;;;;;-4.07;100.00;101442.61;107430;1278;58923;-81
2023/03/01 04:10:42;;;;;;;53.60;23.70;;;;;;;-4.04;100.00;101447.63;107226;1279;59223;-80
2023/03/01 04:13:11;;;;;;;58.50;23.70;;;;;;;-4.04;100.00;101450.43;107214;1279;62967;-80
2023/03/01 04:15:36;;;;;;;53.90;24.20;;;;;;;-4.03;100.00;101448.59;107456;1279;61083;-80
2023/03/01 04:18:02;;;;;;;51.00;23.60;;;;;;;-4.00;100.00;101447.64;107445;1279;59425;-80
2023/03/01 04:20:31;;;;;;;51.30;23.40;;;;;;;-3.97;100.00;101437.85;107424;1279;59431;-80
2023/03/01 04:23:16;;;;;;;50.50;22.50;;;;;;;-3.95;100.00;101438.02;107421;1279;72414;-80
2023/03/01 04:26:01;;;;;;;52.40;24.00;;;;;;;-3.96;100.00;101439.52;107417;1279;61548;-80
2023/03/01 04:28:39;;;;;;;55.30;24.40;;;;;;;-3.92;100.00;101438.39;107399;1279;61258;-80
2023/03/01 04:31:13;;;;;;;53.50;24.00;;;;;;;-3.89;100.00;101435.20;107416;1279;75517;-81
2023/03/01 04:33:51;;;;;;;53.40;23.90;;;;;;;-3.85;100.00;101438.12;107405;1278;74218;-80
2023/03/01 04:36:18;;;;;;;60.40;26.30;;;;;;;-3.80;100.00;101432.52;107044;1278;73510;-80
2023/03/01 04:38:47;;;;;;;64.90;26.10;;;;;;;-3.75;100.00;101442.13;107413;1279;62736;-80
2023/03/01 04:41:15;;;;;;;60.20;26.60;;;;;;;-3.69;100.00;101439.08;107444;1279;60996;-80
2023/03/01 04:43:41;;;;;;;63.30;27.80;;;;;;;-3.62;100.00;101441.73;107452;1279;75504;-80
2023/03/01 04:46:10;;;;;;;67.50;28.20;;;;;;;-3.56;100.00;101442.95;107460;1279;59356;-80
2023/03/01 04:48:37;;;;;;;63.20;28.10;;;;;;;-3.50;100.00;101447.27;107390;1279;73236;-80
2023/03/01 04:51:03;;;;;;;71.10;29.70;;;;;;;-3.35;100.00;101444.98;107404;1279;62806;-80
2023/03/01 04:53:30;;;;;;;70.10;28.70;;;;;;;-3.26;100.00;101454.77;107067;1285;59196;-81
2023/03/01 04:55:56;;;;;;;72.90;28.80;;;;;;;-3.20;100.00;101458.42;107187;1279;59172;-81
2023/03/01 04:58:26;;;;;;;71.90;30.50;;;;;;;-3.11;100.00;101461.84;107443;1278;59573;-81
2023/03/01 05:00:53;;;;;;;73.80;30.20;;;;;;;-3.03;100.00;101453.58;107417;1279;73593;-80
2023/03/01 05:03:19;;;;;;;68.40;29.20;;;;;;;-2.94;100.00;101451.77;107422;1279;61452;-80
2023/03/01 05:05:48;;;;;;;63.30;28.10;;;;;;;-2.83;100.00;101445.27;107438;1279;58997;-81
2023/03/01 05:08:20;;;;;;;61.50;24.60;;;;;;;-2.64;100.00;101443.29;107218;1278;75397;-81
2023/03/01 05:10:51;;;;;;;59.30;22.80;;;;;;;-2.10;100.00;101437.36;107424;1279;74251;-81
2023/03/01 05:13:20;;;;;;;51.20;20.30;;;;;;;-1.20;100.00;101439.67;107437;1279;73767;-82
2023/03/01 05:15:57;;;;;;;50.10;19.30;;;;;;;-0.20;100.00;101440.19;107412;1279;61639;-80
2023/03/01 05:18:27;;;;;;;46.90;18.10;;;;;;;0.79;100.00;101443.11;107408;1279;60353;-80
2023/03/01 05:21:11;;;;;;;47.50;17.80;;;;;;;1.74;100.00;101439.27;107157;1279;74387;-80
2023/03/01 05:23:38;;;;;;;42.90;17.30;;;;;;;2.87;100.00;101429.54;107042;1278;74498;-80
2023/03/01 05:26:05;;;;;;;48.80;16.30;;;;;;;3.83;100.00;101438.03;107440;1278;59174;-81
2023/03/01 05:28:31;;;;;;;34.00;15.50;;;;;;;4.60;100.00;101433.48;107190;1278;62278;-81
2023/03/01 05:30:57;;;;;;;36.40;16.10;;;;;;;5.49;100.00;101427.05;107459;1279;59344;-81
2023/03/01 05:33:23;;;;;;;45.10;16.10;;;;;;;6.20;100.00;101432.32;107477;1278;58944;-81
2023/03/01 05:35:50;;;;;;;35.30;15.50;;;;;;;6.84;100.00;101437.67;107457;1279;59290;-81
2023/03/01 05:38:16;;;;;;;34.70;15.30;;;;;;;7.45;100.00;101438.48;107413;1278;59277;-81
2023/03/01 05:40:44;;;;;;;35.00;15.50;;;;;;;8.03;100.00;101439.05;107436;1279;59672;-82
2023/03/01 05:43:11;;;;;;;35.70;16.80;;;;;;;8.15;99.41;101450.54;107450;1279;59071;-82
2023/03/01 05:45:40;;;;;;;34.10;15.20;;;;;;;8.17;99.96;101443.41;107459;1279;58914;-82
2023/03/01 05:48:07;;;;;;;32.80;14.50;;;;;;;8.51;99.61;101451.94;107446;1279;73291;-82
2023/03/01 05:50:39;;;;;;;34.70;14.80;;;;;;;8.95;90.69;101452.17;107434;1279;73668;-82
2023/03/01 05:53:13;;;;;;;32.00;14.10;;;;;;;9.35;84.64;101447.16;107377;1279;59789;-82
2023/03/01 05:55:39;;;;;;;33.20;15.10;;;;;;;9.88;77.64;101449.84;107426;1279;60902;-82
2023/03/01 05:58:09;;;;;;;27.50;14.10;;;;;;;9.88;71.50;101451.05;107447;1279;59285;-83
2023/03/01 06:00:34;;;;;;;37.10;15.10;;;;;;;10.36;71.81;101452.21;107247;1279;74840;-83
2023/03/01 06:03:00;;;;;;;34.40;14.10;;;;;;;11.18;69.94;101451.88;106940;1279;59103;-84
2023/03/01 06:05:27;;;;;;;31.90;15.00;;;;;;;12.05;67.93;101443.15;107067;1279;59035;-84
2023/03/01 06:07:53;;;;;;;25.30;13.50;;;;;;;12.55;61.20;101443.60;107115;1279;59235;-84
2023/03/01 06:10:21;;;;;;;25.20;13.00;;;;;;;13.30;60.69;101443.86;107417;1279;59311;-83
2023/03/01 06:12:47;;;;;;;21.70;13.00;;;;;;;14.09;55.20;101438.44;107459;1279;58986;-83
2023/03/01 06:15:15;;;;;;;22.60;12.60;;;;;;;14.51;51.21;101436.21;107439;1279;59135;-84
2023/03/01 06:17:43;;;;;;;25.10;12.40;;;;;;;14.72;50.12;101433.32;107425;1280;59953;-84
2023/03/01 06:20:17;;;;;;;20.50;11.90;;;;;;;15.19;50.25;101436.96;107462;1279;60473;-83
2023/03/01 06:22:44;;;;;;;23.10;12.30;;;;;;;15.40;45.87;101434.35;107256;1279;73263;-84
2023/03/01 06:25:12;;;;;;;21.00;11.90;;;;;;;15.61;46.24;101429.65;107489;1279;73376;-84
2023/03/01 06:27:38;;;;;;;20.60;11.50;;;;;;;16.20;44.85;101426.90;107276;1279;73495;-84
2023/03/01 06:30:04;;;;;;;17.00;11.10;;;;;;;16.68;43.91;101424.13;107433;1279;59012;-84
2023/03/01 06:32:30;;;;;;;19.80;10.10;;;;;;;17.00;42.60;101427.02;107447;1278;59023;-84
2023/03/01 06:34:58;;;;;;;15.70;9.80;;;;;;;16.91;39.83;101425.27;107203;1280;341860;-85
2023/03/01 06:37:25;;;;;;;16.30;9.80;;;;;;;16.73;41.21;101425.15;107477;1279;59244;-86
2023/03/01 06:39:50;;;;;;;13.90;8.80;;;;;;;16.76;39.35;101427.42;107401;1279;73495;-85
2023/03/01 06:42:16;;;;;;;14.40;9.90;;;;;;;17.00;39.62;101421.84;107435;1279;59043;-85
2023/03/01 06:44:42;;;;;;;15.10;10.30;;;;;;;17.32;38.35;101419.82;107268;1284;59112;-85
2023/03/01 06:47:07;;;;;;;14.10;9.70;;;;;;;17.53;37.90;101412.86;107471;1279;59269;-85
2023/03/01 06:49:33;;;;;;;14.20;9.90;;;;;;;17.89;38.95;101410.48;107483;1278;59510;-86
2023/03/01 06:51:58;;;;;;;13.70;9.00;;;;;;;18.33;37.36;101409.83;107407;1279;59475;-86
2023/03/01 06:54:24;;;;;;;14.70;9.70;;;;;;;18.50;36.15;101404.27;107121;1279;60103;-85
2023/03/01 06:56:50;;;;;;;14.60;9.40;;;;;;;17.93;35.99;101403.40;107284;1283;59063;-85
2023/03/01 06:59:16;;;;;;;16.80;10.00;;;;;;;18.13;36.08;101396.74;107447;1279;59037;-86
2023/03/01 07:05:04;;;;;;;17.40;9.70;;;;;;;18.66;33.93;101387.40;107420;1282;59020;-87
2023/03/01 07:07:29;;;;;;;14.90;8.80;;;;;;;18.67;35.00;101387.15;107468;1280;59898;-86
2023/03/01 07:09:55;;;;;;;13.50;8.90;;;;;;;18.97;34.95;101381.94;107486;1279;59050;-87
2023/03/01 07:12:21;;;;;;;13.90;8.90;;;;;;;19.64;35.03;101376.83;107288;1279;59004;-87
2023/03/01 07:14:46;;;;;;;17.80;9.20;;;;;;;19.62;33.43;101375.92;107449;1281;59062;-86
2023/03/01 07:17:12;;;;;;;13.70;9.70;;;;;;;19.74;33.21;101377.58;107326;1280;58906;-87
2023/03/01 07:19:38;;;;;;;12.80;9.10;;;;;;;20.18;32.50;101379.13;107494;1279;60455;-86
2023/03/01 07:22:04;;;;;;;11.30;8.30;;;;;;;19.70;32.48;101373.23;107139;1279;59140;-87
2023/03/01 07:24:30;;;;;;;12.80;8.80;;;;;;;19.45;32.57;101374.20;107254;1280;59193;-85
2023/03/01 07:26:55;;;;;;;11.80;8.50;;;;;;;19.50;33.64;101368.27;107256;1279;59135;-87
2023/03/01 07:29:21;;;;;;;15.10;9.50;;;;;;;19.79;31.39;101368.30;107489;1279;59470;-88
2023/03/01 07:31:46;;;;;;;14.30;9.10;;;;;;;20.14;32.85;101361.14;107547;1279;59141;-86
2023/03/01 07:34:12;;;;;;;13.10;9.20;;;;;;;20.52;31.41;101353.66;107454;1280;72595;-87
2023/03/01 07:36:39;;;;;;;14.10;8.70;;;;;;;20.86;31.31;101351.15;107470;1278;59099;-86
2023/03/01 07:39:05;;;;;;;12.20;8.80;;;;;;;21.23;31.66;101354.51;107490;1279;58935;-86
2023/03/01 07:41:30;;;;;;;15.00;8.40;;;;;;;20.74;30.30;101352.36;106910;1278;59052;-87
2023/03/01 07:43:56;;;;;;;15.80;8.60;;;;;;;19.47;31.18;101352.11;107500;1278;59407;-86
2023/03/01 07:46:22;;;;;;;16.00;8.90;;;;;;;18.23;31.96;101358.45;107259;1279;59017;-84
2023/03/01 07:48:47;;;;;;;18.60;9.20;;;;;;;16.76;33.03;101366.17;107503;1278;58969;-84
2023/03/01 07:51:13;;;;;;;15.30;8.20;;;;;;;15.37;34.56;101365.75;107483;1280;73623;-84
2023/03/01 07:53:38;;;;;;;14.90;8.70;;;;;;;15.92;36.20;101360.87;107474;1280;59025;-84
2023/03/01 07:56:09;;;;;;;14.40;8.20;;;;;;;16.89;34.80;101361.63;107484;1280;59010;-84
2023/03/01 07:58:37;;;;;;;16.40;8.80;;;;;;;16.45;34.26;101357.46;107049;1280;60202;-84
2023/03/01 08:01:04;;;;;;;17.60;8.30;;;;;;;16.01;34.31;101354.70;107258;1279;59137;-84
2023/03/01 08:03:30;;;;;;;14.60;8.30;;;;;;;14.92;35.00;101350.68;107481;1279;74593;-83
2023/03/01 08:05:55;;;;;;;15.20;8.20;;;;;;;13.69;36.64;101352.58;107499;1279;59379;-83
2023/03/01 08:08:21;;;;;;;16.10;8.70;;;;;;;12.95;38.03;101353.36;107022;1278;59093;-83
2023/03/01 08:10:47;;;;;;;17.00;8.70;;;;;;;12.38;38.31;101349.15;107080;1278;59009;-83
2023/03/01 08:13:12;;;;;;;16.30;8.40;;;;;;;11.51;39.66;101341.11;107489;1279;59380;-82
2023/03/01 08:15:38;;;;;;;16.80;8.80;;;;;;;10.76;41.01;101335.00;107551;1279;59046;-83
2023/03/01 08:18:04;;;;;;;19.40;8.90;;;;;;;10.06;41.54;101333.47;107473;1278;72375;-82
2023/03/01 08:20:29;;;;;;;20.60;9.50;;;;;;;9.37;43.43;101325.89;107213;1279;59060;-82
2023/03/01 08:22:57;;;;;;;19.30;8.50;;;;;;;9.10;44.27;101325.84;106964;1279;59184;-83
2023/03/01 08:25:23;;;;;;;18.00;8.80;;;;;;;8.61;45.13;101323.58;107180;1280;59040;-82
2023/03/01 08:27:48;;;;;;;17.00;8.10;;;;;;;8.39;46.03;101323.89;107354;1279;59900;-81
2023/03/01 08:30:14;;;;;;;21.10;8.70;;;;;;;8.31;46.40;101318.25;107338;1279;59053;-82
2023/03/01 08:32:39;;;;;;;19.10;8.80;;;;;;;8.06;47.16;101321.83;107352;1279;59104;-82
2023/03/01 08:35:06;;;;;;;16.90;8.00;;;;;;;8.07;48.09;101314.41;107381;1279;59132;-82
2023/03/01 08:37:33;;;;;;;17.40;8.30;;;;;;;8.28;49.12;101304.03;107023;1283;73152;-82
2023/03/01 08:40:00;;;;;;;18.60;8.40;;;;;;;8.71;48.63;101292.05;107058;1280;72731;-82
2023/03/01 08:42:26;;;;;;;17.90;8.30;;;;;;;8.92;48.09;101284.00;107359;1279;58963;-82
2023/03/01 08:44:51;;;;;;;19.10;7.70;;;;;;;8.85;47.31;101284.36;107339;1279;59048;-82
2023/03/01 08:47:17;;;;;;;17.60;8.10;;;;;;;8.65;49.08;101287.63;107360;1279;59033;-82
2023/03/01 08:49:43;;;;;;;17.60;8.40;;;;;;;9.72;50.14;101293.30;107369;1279;59213;-82
2023/03/01 08:52:08;;;;;;;17.30;7.80;;;;;;;11.01;47.70;101292.76;107370;1280;59031;-82
2023/03/01 08:54:34;;;;;;;19.20;7.70;;;;;;;11.67;45.87;101290.05;106895;1279;59068;-83
2023/03/01 08:57:02;;;;;;;16.00;8.40;;;;;;;12.02;45.04;101290.69;107151;1280;74521;-83
2023/03/01 08:59:29;;;;;;;14.80;7.40;;;;;;;12.14;43.74;101287.88;107329;1279;74228;-83
2023/03/01 09:01:55;;;;;;;13.50;7.60;;;;;;;12.80;43.62;101274.98;107304;1279;73469;-84
2023/03/01 09:04:21;;;;;;;12.80;7.20;;;;;;;13.30;42.23;101274.36;107315;1279;59180;-84
2023/03/01 09:06:48;;;;;;;15.30;7.80;;;;;;;13.23;41.56;101263.31;107388;1279;59555;-84
2023/03/01 09:09:17;;;;;;;14.60;7.70;;;;;;;12.77;41.86;101266.48;107345;1279;59435;-85
2023/03/01 09:11:45;;;;;;;15.70;7.30;;;;;;;12.27;42.49;101265.95;107007;1279;73386;-85
2023/03/01 09:14:14;;;;;;;14.30;7.30;;;;;;;12.13;43.26;101264.77;107371;1279;72269;-85
2023/03/01 09:16:40;;;;;;;16.00;7.90;;;;;;;11.61;42.90;101263.80;107037;1279;59266;-85
2023/03/01 09:19:06;;;;;;;15.60;7.50;;;;;;;11.19;43.47;101251.89;106955;1284;59212;-84
2023/03/01 09:21:31;;;;;;;15.20;7.40;;;;;;;10.68;43.83;101250.59;106981;1283;59024;-85
2023/03/01 09:23:58;;;;;;;16.10;7.80;;;;;;;10.29;45.19;101251.73;106640;1283;59258;-84
2023/03/01 09:26:24;;;;;;;16.20;7.50;;;;;;;10.16;46.31;101255.95;107017;1282;59199;-85
2023/03/01 09:28:53;;;;;;;16.60;7.40;;;;;;;9.82;46.30;101266.44;106999;1283;59110;-83
2023/03/01 09:31:21;;;;;;;15.70;7.90;;;;;;;9.62;45.99;101265.32;106878;1283;59092;-84
2023/03/01 09:33:49;;;;;;;15.70;7.50;;;;;;;9.14;47.18;101260.74;107024;1283;74552;-83
2023/03/01 09:36:20;;;;;;;15.30;7.70;;;;;;;8.91;47.71;101256.56;107052;1283;74174;-83
2023/03/01 09:38:45;;;;;;;16.20;7.20;;;;;;;8.48;48.41;101255.97;106993;1283;71412;-83
2023/03/01 09:41:17;;;;;;;15.70;7.70;;;;;;;8.11;50.10;101257.66;106589;1287;59081;-85
2023/03/01 09:43:45;;;;;;;14.80;7.20;;;;;;;8.26;50.21;101255.70;106522;1287;60259;-83
2023/03/01 09:46:16;;;;;;;14.50;7.40;;;;;;;8.20;50.79;101263.38;106534;1287;73398;-83
2023/03/01 09:49:05;;;;;;;20.80;8.50;;;;;;;8.06;50.43;101258.43;106561;1287;73646;-83
2023/03/01 09:51:34;;;;;;;16.50;8.30;;;;;;;7.98;52.23;101255.59;106731;1285;73520;-83
2023/03/01 09:54:05;;;;;;;17.50;7.30;;;;;;;8.12;51.84;101256.40;106646;1285;59077;-84
2023/03/01 09:56:46;;;;;;;17.80;7.80;;;;;;;8.14;51.65;101257.52;106817;1285;59170;-83
2023/03/01 09:59:14;;;;;;;22.50;8.70;;;;;;;8.09;51.59;101257.07;106783;1285;73292;-86
2023/03/01 10:01:53;;;;;;;19.10;7.20;;;;;;;7.99;52.35;101258.98;106792;1284;73619;-83
2023/03/01 10:04:51;;;;;;;17.50;7.80;;;;;;;8.03;53.00;101252.92;106800;1285;73532;-83
2023/03/01 10:07:38;;;;;;;17.20;8.50;;;;;;;8.06;52.76;101253.11;106712;1285;60164;-84
2023/03/01 10:10:08;;;;;;;17.30;7.90;;;;;;;8.14;53.75;101254.95;106770;1284;61131;-83
2023/03/01 10:12:37;;;;;;;15.80;7.50;;;;;;;8.15;52.48;101257.02;106537;1287;75343;-84
2023/03/01 10:15:20;;;;;;;18.00;8.50;;;;;;;7.93;53.36;101259.00;106548;1287;74501;-83
2023/03/01 10:17:57;;;;;;;;;;;;;;;7.70;53.58;101260.32;106526;1287;73513;-84
2023/03/01 10:20:26;;;;;;;20.60;8.50;;;;;;;7.44;55.20;101262.84;106728;1285;59908;-84
2023/03/01 10:22:54;;;;;;;16.10;7.90;;;;;;;7.34;55.59;101262.36;106741;1285;60256;-85
2023/03/01 10:25:46;;;;;;;20.50;8.70;;;;;;;7.29;55.65;101257.81;106334;1285;75675;-84
2023/03/01 10:28:24;;;;;;;18.80;8.00;;;;;;;7.22;56.31;101260.45;106045;1292;74845;-84
2023/03/01 10:30:49;;;;;;;16.50;7.90;;;;;;;7.20;56.86;101260.33;106042;1293;72613;-84
2023/03/01 10:33:23;;;;;;;19.00;7.90;;;;;;;7.24;58.15;101256.92;106084;1292;59090;-84
2023/03/01 10:35:48;;;;;;;;;;;;;;;7.34;57.40;101256.46;106047;1293;60037;-84
2023/03/01 10:38:16;;;;;;;17.20;8.30;;;;;;;7.08;57.81;101257.07;106037;1292;59176;-84
2023/03/01 10:41:05;;;;;;;18.20;9.00;;;;;;;6.95;57.22;101253.48;105894;1293;75792;-84
2023/03/01 10:43:46;;;;;;;19.10;8.60;;;;;;;6.56;58.78;101253.66;106101;1292;72571;-84
2023/03/01 10:46:35;;;;;;;19.60;8.90;;;;;;;6.44;61.54;101248.88;106167;1292;60442;-84
2023/03/01 10:49:21;;;;;;;18.50;9.20;;;;;;;6.56;62.69;101247.07;105579;1297;60616;-84
2023/03/01 10:52:20;;;;;;;19.20;9.10;;;;;;;6.42;64.00;101246.30;105515;1299;74485;-83
2023/03/01 10:54:58;;;;;;;19.30;8.80;;;;;;;6.53;65.16;101248.00;105405;1300;72213;-83
2023/03/01 10:57:42;;;;;;;21.00;9.00;;;;;;;6.69;63.29;101252.05;105514;1299;73627;-84
2023/03/01 11:00:18;;;;;;;23.10;9.80;;;;;;;6.60;64.25;101249.56;105642;1299;59412;-84
2023/03/01 11:02:47;;;;;;;17.70;9.30;;;;;;;6.50;65.53;101252.00;105626;1299;60020;-85
2023/03/01 11:05:17;;;;;;;22.00;9.80;;;;;;;6.39;66.32;101251.21;105891;1291;75359;-84
2023/03/01 11:07:51;;;;;;;20.70;10.10;;;;;;;6.22;67.00;101246.70;106190;1291;72301;-83
2023/03/01 11:10:23;;;;;;;22.80;10.10;;;;;;;6.05;69.83;101243.66;106072;1291;73546;-84
2023/03/01 11:12:50;;;;;;;24.10;11.30;;;;;;;5.99;71.24;101243.16;106042;1291;59180;-84
2023/03/01 11:15:27;;;;;;;23.80;11.50;;;;;;;6.06;73.13;101244.52;106169;1291;60767;-86
2023/03/01 11:17:55;;;;;;;23.70;11.00;;;;;;;6.15;71.49;101246.05;105946;1291;75405;-85
2023/03/01 11:20:20;;;;;;;24.00;10.90;;;;;;;5.94;75.61;101240.54;106203;1291;72648;-85